Terminal Aerodrome Forecast
Issued by NWS

Current Version | Previous Version | Text Only | Print | Product List | Glossary On
Versions: 1 2 3 4 5 6 7 8 9 10 11 12 13 14 15 16 17 18 19 20 21 22 23 24 25 26 27 28 29 30 31 32 33 34 35 36 37 38 39 40 41
000
FTAK31 PANC 041209 AAA
TAFADU
TAF AMD
PADU 041209Z 0412/0512 09005KT P6SM -RA SCT009 BKN012 OVC017
      TEMPO 0412/0416 BKN009
     FM041700 12005KT 6SM -RA BR SCT008 OVC012
     FM050900 09010KT 6SM -RA BR BKN006 OVC015=

USA.gov is the U.S. government's official web portal to all federal, state and local government web resources and services.